createdAt,value
2022-09-18T00:01:33.428Z,9.10
2022-09-18T00:04:06.063Z,9.20
2022-09-18T00:06:39.173Z,9.10
2022-09-18T00:09:10.880Z,9.20
2022-09-18T00:11:45.777Z,9.10
2022-09-18T00:14:21.234Z,9.10
2022-09-18T00:16:49.233Z,9.10
2022-09-18T00:19:17.074Z,9.00
2022-09-18T00:21:49.241Z,9.00
2022-09-18T00:24:20.420Z,9.00
2022-09-18T00:26:48.316Z,9.00
2022-09-18T00:29:17.964Z,8.70
2022-09-18T00:31:45.564Z,9.00
2022-09-18T00:34:14.686Z,9.00
2022-09-18T00:36:43.021Z,9.00
2022-09-18T00:39:11.387Z,9.00
2022-09-18T00:41:42.231Z,9.00
2022-09-18T00:44:46.089Z,9.00
2022-09-18T00:47:44.635Z,9.00
2022-09-18T00:50:27.487Z,9.00
2022-09-18T00:52:59.839Z,9.00
2022-09-18T00:55:35.342Z,9.00
2022-09-18T00:58:04.742Z,9.00
2022-09-18T01:00:33.077Z,9.00
2022-09-18T01:03:01.745Z,9.10
2022-09-18T01:05:33.448Z,9.00
2022-09-18T01:08:43.768Z,9.00
2022-09-18T01:11:26.460Z,9.10
2022-09-18T01:14:23.565Z,9.10
2022-09-18T01:17:23.319Z,9.10
2022-09-18T01:20:19.384Z,9.10
2022-09-18T01:23:10.163Z,9.10
2022-09-18T01:25:51.640Z,9.10
2022-09-18T01:28:41.429Z,9.10
2022-09-18T01:31:27.066Z,9.10
2022-09-18T01:34:38.324Z,9.10
2022-09-18T01:37:36.246Z,9.10
2022-09-18T01:40:19.914Z,9.10
2022-09-18T01:42:50.740Z,9.00
2022-09-18T01:45:26.417Z,9.10
2022-09-18T01:48:14.507Z,9.00
2022-09-18T01:50:54.278Z,9.00
2022-09-18T01:53:36.739Z,9.00
2022-09-18T01:56:13.813Z,9.00
2022-09-18T01:58:42.551Z,9.00
2022-09-18T02:01:16.822Z,8.90
2022-09-18T02:03:51.791Z,9.00
2022-09-18T02:06:45.803Z,9.00
2022-09-18T02:09:13.829Z,9.00
2022-09-18T02:11:50.840Z,9.10
2022-09-18T02:14:31.685Z,9.00
2022-09-18T02:17:39.182Z,9.00
2022-09-18T02:20:21.075Z,9.10
2022-09-18T02:22:53.005Z,9.10
2022-09-18T02:25:29.506Z,9.10
2022-09-18T02:27:57.684Z,9.10
2022-09-18T02:30:26.797Z,9.10
2022-09-18T02:32:56.482Z,9.10
2022-09-18T02:35:34.925Z,9.10
2022-09-18T02:38:27.058Z,9.10
2022-09-18T02:41:24.703Z,9.20
2022-09-18T02:44:09.989Z,9.20
2022-09-18T02:47:09.021Z,9.20
2022-09-18T02:50:01.459Z,9.20
2022-09-18T02:52:59.101Z,9.20
2022-09-18T02:55:45.555Z,9.20
2022-09-18T02:58:28.738Z,9.20
2022-09-18T03:01:02.644Z,9.20
2022-09-18T03:03:37.093Z,9.20
2022-09-18T03:06:08.090Z,9.20
2022-09-18T03:08:37.175Z,9.20
2022-09-18T03:11:06.154Z,9.20
2022-09-18T03:13:34.419Z,9.20
2022-09-18T03:16:03.491Z,9.20
2022-09-18T03:18:30.682Z,9.40
2022-09-18T03:20:59.495Z,9.30
2022-09-18T03:23:26.761Z,9.20
2022-09-18T03:26:03.056Z,9.20
2022-09-18T03:28:33.601Z,9.30
2022-09-18T03:31:00.796Z,9.20
2022-09-18T03:33:27.972Z,9.20
2022-09-18T03:35:55.184Z,9.30
2022-09-18T03:38:22.308Z,9.20
2022-09-18T03:40:50.406Z,9.40
2022-09-18T03:43:17.486Z,9.20
2022-09-18T03:45:44.700Z,9.20
2022-09-18T03:48:13.191Z,9.20
2022-09-18T03:50:40.269Z,9.20
2022-09-18T03:53:11.613Z,9.20
2022-09-18T03:55:49.858Z,9.20
2022-09-18T03:58:41.128Z,9.20
2022-09-18T04:01:09.081Z,9.20
2022-09-18T04:03:56.133Z,9.30
2022-09-18T04:06:55.495Z,9.20
2022-09-18T04:09:42.780Z,9.10
2022-09-18T04:12:10.276Z,9.10
2022-09-18T04:14:37.984Z,9.10
2022-09-18T04:17:05.201Z,9.10
2022-09-18T04:19:32.260Z,9.10
2022-09-18T04:21:59.348Z,9.10
2022-09-18T04:24:27.355Z,9.10
2022-09-18T04:26:54.932Z,9.10
2022-09-18T04:29:24.371Z,9.10
2022-09-18T04:31:51.885Z,9.10
2022-09-18T04:34:21.397Z,9.10
2022-09-18T04:36:48.566Z,9.10
2022-09-18T04:39:15.853Z,9.10
2022-09-18T04:41:45.588Z,9.10
2022-09-18T04:44:14.328Z,9.10
2022-09-18T04:46:42.904Z,9.10
2022-09-18T04:49:10.846Z,9.10
2022-09-18T04:51:38.594Z,9.00
2022-09-18T04:54:05.715Z,9.10
2022-09-18T04:56:36.635Z,9.00
2022-09-18T04:59:04.318Z,8.90
2022-09-18T05:01:32.577Z,9.00
2022-09-18T05:04:03.245Z,9.10
2022-09-18T05:06:42.470Z,8.90
2022-09-18T05:09:09.529Z,8.90
2022-09-18T05:11:36.884Z,8.90
2022-09-18T05:14:05.875Z,8.90
2022-09-18T05:16:34.150Z,8.90
2022-09-18T05:19:27.170Z,8.90
2022-09-18T05:22:00.908Z,8.90
2022-09-18T05:24:27.996Z,9.10
2022-09-18T05:26:55.015Z,8.90
2022-09-18T05:29:22.876Z,8.90
2022-09-18T05:31:51.939Z,8.90
2022-09-18T05:34:19.183Z,8.90
2022-09-18T05:36:46.619Z,8.90
2022-09-18T05:39:17.427Z,8.90
2022-09-18T05:41:50.768Z,8.90
2022-09-18T05:44:19.938Z,8.90
2022-09-18T05:46:48.572Z,9.00
2022-09-18T05:49:17.233Z,8.90
2022-09-18T05:51:45.006Z,9.10
2022-09-18T05:54:13.029Z,9.00
2022-09-18T05:56:43.615Z,9.00
2022-09-18T05:59:11.717Z,9.10
2022-09-18T06:01:41.607Z,9.10
2022-09-18T06:04:21.760Z,9.20
2022-09-18T06:06:53.133Z,9.20
2022-09-18T06:09:20.371Z,9.20
2022-09-18T06:11:48.306Z,9.30
2022-09-18T06:14:16.960Z,9.30
2022-09-18T06:16:44.378Z,9.40
2022-09-18T06:19:13.117Z,9.40
2022-09-18T06:21:42.800Z,9.50
2022-09-18T06:24:13.077Z,9.50
2022-09-18T06:26:49.843Z,9.50
2022-09-18T06:29:16.890Z,9.60
2022-09-18T06:31:56.830Z,9.60
2022-09-18T06:34:26.591Z,9.70
2022-09-18T06:36:57.291Z,9.60
2022-09-18T06:39:49.924Z,9.60
2022-09-18T06:42:46.292Z,9.70
2022-09-18T06:45:33.331Z,9.70
2022-09-18T06:48:04.596Z,9.70
2022-09-18T06:50:32.989Z,9.70
2022-09-18T06:53:11.549Z,9.70
2022-09-18T06:55:49.034Z,9.70
2022-09-18T06:58:19.363Z,9.70
2022-09-18T07:00:50.237Z,9.70
2022-09-18T07:03:23.643Z,9.70
2022-09-18T07:06:10.432Z,9.70
2022-09-18T07:08:46.985Z,9.80
2022-09-18T07:11:37.205Z,9.70
2022-09-18T07:14:08.248Z,9.70
2022-09-18T07:16:36.063Z,9.80
2022-09-18T07:19:04.971Z,9.70
2022-09-18T07:21:32.018Z,9.70
2022-09-18T07:23:59.155Z,9.70
2022-09-18T07:26:26.462Z,9.70
2022-09-18T07:28:53.793Z,9.70
2022-09-18T07:31:26.419Z,9.70
2022-09-18T07:33:56.272Z,9.70
2022-09-18T07:36:27.981Z,9.70
2022-09-18T07:38:55.103Z,9.70
2022-09-18T07:41:25.512Z,9.70
2022-09-18T07:43:52.975Z,9.70
2022-09-18T07:46:20.106Z,9.80
2022-09-18T07:48:49.913Z,9.80
2022-09-18T07:51:26.473Z,9.80
2022-09-18T07:53:55.688Z,9.80
2022-09-18T07:56:46.761Z,9.90
2022-09-18T07:59:16.829Z,9.80
2022-09-18T08:01:44.449Z,9.90
2022-09-18T08:04:11.646Z,9.80
2022-09-18T08:07:07.758Z,9.90
2022-09-18T08:09:58.907Z,9.90
2022-09-18T08:12:44.788Z,9.90
2022-09-18T08:15:26.343Z,9.90
2022-09-18T08:18:21.623Z,10.00
2022-09-18T08:21:07.342Z,10.00
2022-09-18T08:23:44.265Z,10.00
2022-09-18T08:26:11.383Z,10.00
2022-09-18T08:28:38.394Z,10.00
2022-09-18T08:31:07.262Z,10.00
2022-09-18T08:33:34.344Z,10.10
2022-09-18T08:36:01.937Z,10.10
2022-09-18T08:38:33.334Z,10.10
2022-09-18T08:42:01.857Z,10.10
2022-09-18T08:44:56.379Z,10.20
2022-09-18T08:48:10.044Z,10.20
2022-09-18T08:50:46.485Z,10.20
2022-09-18T08:53:22.597Z,10.20
2022-09-18T08:56:18.651Z,10.30
2022-09-18T08:59:35.574Z,10.30
2022-09-18T09:02:52.390Z,10.30
2022-09-18T09:05:26.339Z,10.30
2022-09-18T09:08:25.814Z,10.30
2022-09-18T09:11:31.099Z,10.30
2022-09-18T09:14:56.678Z,10.30
2022-09-18T09:17:49.118Z,10.30
2022-09-18T09:20:27.587Z,10.40
2022-09-18T09:23:13.804Z,10.40
2022-09-18T09:26:12.186Z,10.40
2022-09-18T09:29:07.025Z,10.40
2022-09-18T09:32:04.482Z,10.40
2022-09-18T09:35:32.685Z,10.50
2022-09-18T09:38:30.105Z,10.50
2022-09-18T09:41:02.064Z,10.60
2022-09-18T09:43:48.102Z,10.60
2022-09-18T09:46:50.206Z,10.70
2022-09-18T09:49:46.739Z,10.70
2022-09-18T09:52:27.397Z,10.80
2022-09-18T09:55:19.387Z,10.70
2022-09-18T09:58:18.493Z,10.80
2022-09-18T10:00:56.794Z,10.80
2022-09-18T10:03:59.154Z,10.80
2022-09-18T10:07:15.060Z,10.90
2022-09-18T10:10:25.161Z,10.90
2022-09-18T10:13:06.439Z,10.90
2022-09-18T10:15:50.107Z,10.90
2022-09-18T10:18:31.911Z,10.90
2022-09-18T10:21:10.649Z,11.00
2022-09-18T10:23:58.176Z,11.00
2022-09-18T10:26:34.840Z,11.10
2022-09-18T10:29:02.496Z,11.10
2022-09-18T10:31:56.702Z,11.20
2022-09-18T10:34:42.463Z,11.20
2022-09-18T10:37:28.400Z,11.20
2022-09-18T10:40:01.988Z,11.10
2022-09-18T10:42:36.076Z,11.20
2022-09-18T10:45:41.533Z,11.20
2022-09-18T10:48:24.978Z,11.20
2022-09-18T10:50:55.488Z,11.10
2022-09-18T10:53:30.986Z,11.10
2022-09-18T10:56:20.191Z,11.00
2022-09-18T10:58:49.694Z,11.00
2022-09-18T11:01:17.942Z,11.00
2022-09-18T11:04:06.559Z,10.90
2022-09-18T11:06:37.849Z,10.90
2022-09-18T11:09:30.301Z,10.90
2022-09-18T11:11:57.658Z,10.90
2022-09-18T11:14:40.478Z,10.90
2022-09-18T11:17:47.634Z,10.90
2022-09-18T11:20:44.143Z,10.90
2022-09-18T11:23:19.131Z,10.90
2022-09-18T11:25:47.696Z,10.90
2022-09-18T11:28:33.032Z,10.90
2022-09-18T11:31:17.782Z,10.90
2022-09-18T11:34:23.164Z,10.90
2022-09-18T11:36:54.986Z,10.90
2022-09-18T11:40:00.367Z,10.80
2022-09-18T11:42:29.316Z,10.80
2022-09-18T11:45:28.818Z,10.80
2022-09-18T11:48:31.653Z,10.80
2022-09-18T11:51:05.404Z,10.80
2022-09-18T11:53:41.537Z,10.80
2022-09-18T11:56:19.680Z,10.80
2022-09-18T11:59:01.978Z,10.80
2022-09-18T12:01:51.544Z,10.80
2022-09-18T12:04:49.469Z,10.80
2022-09-18T12:07:38.748Z,10.80
2022-09-18T12:10:38.665Z,10.80
2022-09-18T12:13:45.766Z,10.80
2022-09-18T12:16:31.186Z,10.80
2022-09-18T12:19:40.598Z,10.90
2022-09-18T12:22:17.384Z,10.90
2022-09-18T12:24:45.926Z,10.90
2022-09-18T12:27:40.948Z,10.90
2022-09-18T12:30:18.209Z,10.90
2022-09-18T12:33:22.143Z,10.90
2022-09-18T12:36:27.237Z,11.00
2022-09-18T12:39:14.016Z,11.00
2022-09-18T12:41:56.377Z,11.00
2022-09-18T12:45:30.577Z,11.00
2022-09-18T12:48:17.439Z,11.00
2022-09-18T12:51:14.591Z,11.00
2022-09-18T12:54:13.834Z,11.00
2022-09-18T12:57:02.437Z,11.00
2022-09-18T12:59:55.129Z,11.00
2022-09-18T13:02:54.907Z,11.00
2022-09-18T13:05:33.913Z,11.00
2022-09-18T13:08:26.150Z,11.00
2022-09-18T13:11:02.558Z,11.00
2022-09-18T13:13:49.798Z,11.00
2022-09-18T13:16:32.593Z,11.00
2022-09-18T13:19:22.070Z,11.00
2022-09-18T13:21:51.497Z,11.00
2022-09-18T13:24:32.918Z,11.00
2022-09-18T13:27:04.597Z,11.00
2022-09-18T13:29:53.566Z,10.90
2022-09-18T13:32:36.720Z,10.90
2022-09-18T13:35:13.681Z,10.90
2022-09-18T13:37:42.883Z,10.90
2022-09-18T13:40:37.255Z,10.80
2022-09-18T13:43:28.561Z,10.90
2022-09-18T13:46:07.326Z,10.90
2022-09-18T13:48:40.488Z,10.80
2022-09-18T13:51:31.392Z,10.80
2022-09-18T13:54:26.076Z,10.80
2022-09-18T13:57:14.836Z,10.80
2022-09-18T13:59:58.874Z,10.80
2022-09-18T14:02:36.273Z,10.70
2022-09-18T14:05:34.155Z,10.70
2022-09-18T14:08:37.182Z,10.70
2022-09-18T14:11:15.382Z,10.70
2022-09-18T14:13:54.481Z,10.70
2022-09-18T14:16:22.419Z,10.60
2022-09-18T14:18:49.456Z,10.60
2022-09-18T14:21:19.712Z,10.60
2022-09-18T14:23:46.639Z,10.50
2022-09-18T14:26:36.117Z,10.40
2022-09-18T14:29:15.033Z,10.40
2022-09-18T14:31:46.994Z,10.40
2022-09-18T14:34:37.670Z,10.30
2022-09-18T14:37:31.536Z,10.30
2022-09-18T14:39:59.421Z,10.70
2022-09-18T14:42:33.998Z,10.10
2022-09-18T14:45:13.690Z,10.20
2022-09-18T14:47:44.887Z,10.10
2022-09-18T14:50:41.375Z,10.10
2022-09-18T14:53:27.907Z,10.00
2022-09-18T14:56:06.040Z,10.00
2022-09-18T14:58:40.611Z,10.00
2022-09-18T15:01:15.910Z,9.90
2022-09-18T15:03:48.617Z,9.90
2022-09-18T15:06:38.037Z,9.90
2022-09-18T15:09:12.951Z,9.90
2022-09-18T15:12:01.675Z,9.90
2022-09-18T15:14:43.963Z,9.90
2022-09-18T15:17:23.672Z,9.80
2022-09-18T15:20:16.300Z,9.80
2022-09-18T15:22:43.795Z,9.80
2022-09-18T15:25:16.420Z,9.70
2022-09-18T15:27:44.818Z,9.70
2022-09-18T15:30:19.660Z,9.70
2022-09-18T15:32:53.812Z,9.70
2022-09-18T15:35:36.539Z,9.70
2022-09-18T15:38:19.305Z,9.70
2022-09-18T15:40:47.417Z,9.70
2022-09-18T15:43:29.729Z,9.70
2022-09-18T15:46:13.081Z,9.70
2022-09-18T15:48:40.026Z,9.60
2022-09-18T15:51:32.405Z,9.70
2022-09-18T15:54:13.295Z,9.60
2022-09-18T15:57:00.977Z,9.70
2022-09-18T15:59:40.570Z,9.60
2022-09-18T16:02:36.081Z,9.60
2022-09-18T16:05:17.683Z,9.60
2022-09-18T16:07:58.023Z,9.60
2022-09-18T16:10:41.651Z,9.60
2022-09-18T16:13:11.735Z,9.60
2022-09-18T16:15:40.307Z,9.50
2022-09-18T16:18:16.741Z,9.50
2022-09-18T16:21:06.474Z,9.60
2022-09-18T16:23:53.749Z,9.50
2022-09-18T16:26:27.898Z,9.50
2022-09-18T16:29:02.437Z,9.50
2022-09-18T16:31:33.307Z,9.40
2022-09-18T16:34:04.697Z,9.30
2022-09-18T16:36:41.194Z,9.30
2022-09-18T16:39:13.176Z,9.40
2022-09-18T16:41:40.787Z,9.30
2022-09-18T16:44:11.686Z,9.20
2022-09-18T16:46:49.560Z,9.20
2022-09-18T16:49:21.666Z,9.20
2022-09-18T16:51:49.203Z,9.10
2022-09-18T16:54:16.225Z,9.10
2022-09-18T16:56:57.560Z,9.00
2022-09-18T16:59:29.899Z,9.00
2022-09-18T17:02:04.148Z,8.90
2022-09-18T17:04:33.367Z,8.90
2022-09-18T17:07:00.806Z,8.80
2022-09-18T17:09:28.161Z,8.70
2022-09-18T17:11:56.206Z,8.80
2022-09-18T17:14:24.577Z,8.70
2022-09-18T17:16:51.815Z,8.70
2022-09-18T17:19:19.160Z,8.70
2022-09-18T17:21:46.680Z,8.70
2022-09-18T17:24:13.767Z,8.60
2022-09-18T17:26:42.284Z,8.70
2022-09-18T17:29:13.827Z,8.70
2022-09-18T17:31:41.081Z,8.50
2022-09-18T17:34:08.137Z,8.10
2022-09-18T17:36:37.737Z,8.50
2022-09-18T17:39:05.111Z,8.50
2022-09-18T17:41:33.570Z,8.50
2022-09-18T17:44:00.911Z,8.40
2022-09-18T17:46:28.074Z,8.40
2022-09-18T17:48:58.100Z,8.40
2022-09-18T17:51:28.686Z,8.30
2022-09-18T17:54:03.368Z,8.30
2022-09-18T17:56:32.655Z,8.30
2022-09-18T17:59:05.624Z,8.20
2022-09-18T18:01:37.529Z,8.20
2022-09-18T18:04:05.953Z,8.20
2022-09-18T18:06:34.563Z,8.20
2022-09-18T18:09:01.898Z,8.20
2022-09-18T18:11:29.713Z,8.10
2022-09-18T18:13:56.897Z,8.10
2022-09-18T18:16:30.679Z,8.10
2022-09-18T18:19:01.799Z,8.30
2022-09-18T18:21:30.072Z,8.10
2022-09-18T18:24:00.598Z,8.10
2022-09-18T18:26:28.219Z,8.00
2022-09-18T18:28:55.791Z,8.00
2022-09-18T18:31:25.616Z,8.00
2022-09-18T18:33:55.647Z,7.90
2022-09-18T18:36:27.732Z,8.00
2022-09-18T18:38:59.394Z,8.00
2022-09-18T18:41:29.977Z,7.90
2022-09-18T18:44:02.216Z,8.10
2022-09-18T18:46:35.800Z,7.90
2022-09-18T18:49:09.387Z,7.90
2022-09-18T18:51:43.771Z,7.80
2022-09-18T18:54:12.965Z,7.90
2022-09-18T18:56:41.466Z,7.90
2022-09-18T18:59:13.798Z,7.90
2022-09-18T19:01:42.393Z,7.90
2022-09-18T19:04:13.521Z,7.90
2022-09-18T19:06:44.441Z,7.90
2022-09-18T19:09:20.472Z,8.00
2022-09-18T19:11:49.975Z,8.00
2022-09-18T19:14:31.704Z,7.90
2022-09-18T19:16:59.798Z,7.90
2022-09-18T19:19:29.104Z,7.90
2022-09-18T19:21:59.973Z,7.90
2022-09-18T19:24:28.480Z,7.90
2022-09-18T19:26:55.615Z,7.90
2022-09-18T19:29:23.037Z,7.90
2022-09-18T19:31:51.389Z,7.90
2022-09-18T19:34:21.513Z,7.80
2022-09-18T19:36:50.143Z,7.80
2022-09-18T19:39:20.974Z,7.80
2022-09-18T19:41:52.387Z,7.80
2022-09-18T19:44:31.568Z,7.70
2022-09-18T19:47:04.757Z,7.80
2022-09-18T19:49:38.198Z,7.70
2022-09-18T19:52:33.330Z,7.80
2022-09-18T19:55:00.426Z,7.70
2022-09-18T19:57:30.193Z,7.70
2022-09-18T19:59:58.722Z,7.70
2022-09-18T20:02:25.817Z,7.70
2022-09-18T20:04:53.321Z,7.90
2022-09-18T20:07:20.586Z,6.40
2022-09-18T20:09:47.587Z,7.70
2022-09-18T20:12:14.669Z,7.70
2022-09-18T20:14:41.690Z,7.70
2022-09-18T20:17:10.031Z,7.70
2022-09-18T20:19:37.280Z,7.70
2022-09-18T20:22:05.238Z,7.60
2022-09-18T20:24:32.999Z,7.70
2022-09-18T20:27:01.195Z,7.70
2022-09-18T20:29:29.024Z,7.70
2022-09-18T20:31:56.262Z,7.70
2022-09-18T20:34:25.119Z,7.60
2022-09-18T20:36:53.711Z,7.70
2022-09-18T20:39:21.707Z,7.70
2022-09-18T20:41:51.246Z,7.70
2022-09-18T20:44:19.135Z,7.70
2022-09-18T20:46:46.352Z,7.60
2022-09-18T20:49:17.531Z,7.60
2022-09-18T20:51:44.735Z,8.40
2022-09-18T20:54:14.662Z,7.60
2022-09-18T20:56:43.296Z,7.60
2022-09-18T20:59:19.335Z,7.60
2022-09-18T21:01:47.465Z,7.60
2022-09-18T21:04:19.446Z,7.60
2022-09-18T21:06:55.985Z,7.60
2022-09-18T21:09:29.092Z,7.60
2022-09-18T21:11:58.837Z,7.60
2022-09-18T21:14:27.499Z,7.60
2022-09-18T21:16:55.262Z,7.60
2022-09-18T21:19:26.152Z,7.70
2022-09-18T21:21:53.436Z,7.60
2022-09-18T21:24:21.914Z,7.80
2022-09-18T21:26:50.443Z,7.60
2022-09-18T21:29:27.000Z,7.60
2022-09-18T21:32:00.326Z,7.60
2022-09-18T21:34:31.316Z,7.60
2022-09-18T21:37:02.659Z,7.50
2022-09-18T21:39:31.804Z,7.60
2022-09-18T21:42:00.894Z,7.60
2022-09-18T21:44:31.803Z,7.60
2022-09-18T21:47:03.074Z,7.60
2022-09-18T21:49:31.290Z,7.70
2022-09-18T21:52:02.780Z,8.40
2022-09-18T21:54:31.986Z,7.60
2022-09-18T21:57:00.070Z,7.60
2022-09-18T21:59:32.022Z,7.60
2022-09-18T22:02:00.706Z,7.60
2022-09-18T22:04:31.120Z,7.60
2022-09-18T22:07:00.395Z,7.50
2022-09-18T22:09:38.205Z,7.60
2022-09-18T22:12:07.611Z,7.50
2022-09-18T22:14:35.921Z,7.50
2022-09-18T22:17:06.784Z,7.60
2022-09-18T22:19:38.019Z,7.60
2022-09-18T22:22:07.969Z,7.60
2022-09-18T22:24:35.058Z,7.60
2022-09-18T22:27:08.307Z,7.50
2022-09-18T22:29:39.571Z,7.60
2022-09-18T22:32:07.718Z,7.60
2022-09-18T22:34:35.146Z,7.60
2022-09-18T22:37:03.210Z,7.70
2022-09-18T22:39:30.886Z,7.70
2022-09-18T22:41:58.077Z,7.70
2022-09-18T22:44:25.876Z,7.70
2022-09-18T22:46:54.015Z,7.70
2022-09-18T22:49:23.611Z,7.80
2022-09-18T22:51:51.766Z,7.70
2022-09-18T22:54:26.564Z,7.80
2022-09-18T22:56:55.576Z,7.70
2022-09-18T22:59:26.021Z,7.70
2022-09-18T23:02:02.346Z,7.70
2022-09-18T23:04:33.670Z,7.80
2022-09-18T23:07:01.420Z,7.80
2022-09-18T23:09:29.643Z,7.80
2022-09-18T23:11:58.009Z,7.80
2022-09-18T23:14:29.417Z,7.80
2022-09-18T23:16:58.997Z,7.80
2022-09-18T23:19:30.044Z,7.80
2022-09-18T23:21:57.459Z,7.80
2022-09-18T23:24:25.517Z,7.80
2022-09-18T23:26:55.829Z,7.80
2022-09-18T23:29:25.686Z,7.80
2022-09-18T23:31:57.521Z,7.80
2022-09-18T23:34:30.179Z,7.80
2022-09-18T23:36:58.593Z,7.80
2022-09-18T23:39:33.537Z,8.00
2022-09-18T23:42:02.714Z,7.90
2022-09-18T23:44:34.476Z,7.80
2022-09-18T23:47:01.953Z,7.80
2022-09-18T23:49:30.333Z,7.90
2022-09-18T23:51:59.469Z,8.00
2022-09-18T23:54:30.360Z,7.90
2022-09-18T23:56:58.075Z,7.90
2022-09-18T23:59:26.691Z,7.90
